sensor_id;sensor_type;location;lat;lon;timestamp;pressure;altitude;pressure_sealevel;temperature;humidity
61474;BME280;53694;49.784;30.150;2023-02-17T00:00:42;99675.41;;;2.07;67.71
61474;BME280;53694;49.784;30.150;2023-02-17T00:01:44;99682.16;;;1.95;68.20
61474;BME280;53694;49.784;30.150;2023-02-17T00:02:45;99675.34;;;1.84;68.67
61474;BME280;53694;49.784;30.150;2023-02-17T00:03:49;99678.23;;;1.74;69.05
61474;BME280;53694;49.784;30.150;2023-02-17T00:04:53;99679.25;;;1.64;69.48
61474;BME280;53694;49.784;30.150;2023-02-17T00:05:55;99680.73;;;1.57;70.03
61474;BME280;53694;49.784;30.150;2023-02-17T00:06:57;99683.34;;;1.48;70.46
61474;BME280;53694;49.784;30.150;2023-02-17T00:07:58;99676.74;;;1.40;70.93
61474;BME280;53694;49.784;30.150;2023-02-17T00:09:00;99680.25;;;1.41;71.26
61474;BME280;53694;49.784;30.150;2023-02-17T00:10:02;99680.73;;;1.57;71.26
61474;BME280;53694;49.784;30.150;2023-02-17T00:11:03;99679.16;;;1.83;70.92
61474;BME280;53694;49.784;30.150;2023-02-17T00:12:05;99675.20;;;2.17;70.10
61474;BME280;53694;49.784;30.150;2023-02-17T00:13:07;99675.19;;;2.53;69.12
61474;BME280;53694;49.784;30.150;2023-02-17T00:14:11;99669.73;;;2.89;68.09
61474;BME280;53694;49.784;30.150;2023-02-17T00:15:12;99671.05;;;3.23;66.97
61474;BME280;53694;49.784;30.150;2023-02-17T00:16:19;99670.84;;;3.50;65.87
61474;BME280;53694;49.784;30.150;2023-02-17T00:17:22;99671.67;;;3.60;65.14
61474;BME280;53694;49.784;30.150;2023-02-17T00:18:23;99664.15;;;3.57;64.95
61474;BME280;53694;49.784;30.150;2023-02-17T00:19:25;99669.08;;;3.46;64.90
61474;BME280;53694;49.784;30.150;2023-02-17T00:20:27;99676.34;;;3.28;65.16
61474;BME280;53694;49.784;30.150;2023-02-17T00:21:30;99667.13;;;3.07;65.65
61474;BME280;53694;49.784;30.150;2023-02-17T00:22:32;99662.20;;;2.86;66.18
61474;BME280;53694;49.784;30.150;2023-02-17T00:23:33;99654.88;;;2.64;66.85
61474;BME280;53694;49.784;30.150;2023-02-17T00:24:38;99656.94;;;2.45;67.51
61474;BME280;53694;49.784;30.150;2023-02-17T00:25:40;99654.41;;;2.26;68.20
61474;BME280;53694;49.784;30.150;2023-02-17T00:26:42;99655.84;;;2.10;68.83
61474;BME280;53694;49.784;30.150;2023-02-17T00:27:44;99658.86;;;1.94;69.50
61474;BME280;53694;49.784;30.150;2023-02-17T00:28:46;99648.86;;;1.81;70.06
61474;BME280;53694;49.784;30.150;2023-02-17T00:29:47;99652.86;;;1.70;70.61
61474;BME280;53694;49.784;30.150;2023-02-17T00:30:49;99654.98;;;1.59;71.16
61474;BME280;53694;49.784;30.150;2023-02-17T00:31:52;99649.05;;;1.57;71.48
61474;BME280;53694;49.784;30.150;2023-02-17T00:32:53;99648.08;;;1.67;71.64
61474;BME280;53694;49.784;30.150;2023-02-17T00:33:55;99649.45;;;1.92;71.37
61474;BME280;53694;49.784;30.150;2023-02-17T00:34:57;99645.77;;;2.24;70.74
61474;BME280;53694;49.784;30.150;2023-02-17T00:35:58;99650.66;;;2.58;69.93
61474;BME280;53694;49.784;30.150;2023-02-17T00:37:01;99649.02;;;2.93;68.89
61474;BME280;53694;49.784;30.150;2023-02-17T00:38:03;99654.30;;;3.30;67.74
61474;BME280;53694;49.784;30.150;2023-02-17T00:39:05;99652.49;;;3.56;66.80
61474;BME280;53694;49.784;30.150;2023-02-17T00:40:08;99650.63;;;3.65;66.14
61474;BME280;53694;49.784;30.150;2023-02-17T00:41:09;99655.89;;;3.62;65.76
61474;BME280;53694;49.784;30.150;2023-02-17T00:42:11;99651.37;;;3.48;65.89
61474;BME280;53694;49.784;30.150;2023-02-17T00:43:12;99644.24;;;3.30;66.29
61474;BME280;53694;49.784;30.150;2023-02-17T00:44:19;99647.80;;;3.08;66.75
61474;BME280;53694;49.784;30.150;2023-02-17T00:45:21;99645.92;;;2.86;67.44
61474;BME280;53694;49.784;30.150;2023-02-17T00:46:23;99636.19;;;2.63;68.15
61474;BME280;53694;49.784;30.150;2023-02-17T00:47:25;99638.57;;;2.42;68.87
61474;BME280;53694;49.784;30.150;2023-02-17T00:48:26;99646.56;;;2.24;69.53
61474;BME280;53694;49.784;30.150;2023-02-17T00:49:28;99638.59;;;2.06;70.20
61474;BME280;53694;49.784;30.150;2023-02-17T00:50:29;99634.01;;;1.92;70.83
61474;BME280;53694;49.784;30.150;2023-02-17T00:51:31;99637.82;;;1.78;71.48
61474;BME280;53694;49.784;30.150;2023-02-17T00:52:32;99629.02;;;1.72;72.12
61474;BME280;53694;49.784;30.150;2023-02-17T00:53:34;99635.83;;;1.83;72.28
61474;BME280;53694;49.784;30.150;2023-02-17T00:54:36;99630.46;;;2.06;71.97
61474;BME280;53694;49.784;30.150;2023-02-17T00:55:38;99632.48;;;2.36;71.33
61474;BME280;53694;49.784;30.150;2023-02-17T00:56:40;99633.05;;;2.69;70.43
61474;BME280;53694;49.784;30.150;2023-02-17T00:57:42;99641.72;;;3.03;69.50
61474;BME280;53694;49.784;30.150;2023-02-17T00:58:43;99635.48;;;3.33;68.57
61474;BME280;53694;49.784;30.150;2023-02-17T00:59:45;99639.27;;;3.63;67.56
61474;BME280;53694;49.784;30.150;2023-02-17T01:00:46;99632.93;;;3.85;66.58
61474;BME280;53694;49.784;30.150;2023-02-17T01:01:48;99640.13;;;3.90;65.98
61474;BME280;53694;49.784;30.150;2023-02-17T01:02:49;99635.80;;;3.80;65.74
61474;BME280;53694;49.784;30.150;2023-02-17T01:03:51;99633.04;;;3.63;66.12
61474;BME280;53694;49.784;30.150;2023-02-17T01:04:52;99632.01;;;3.41;66.62
61474;BME280;53694;49.784;30.150;2023-02-17T01:05:55;99626.94;;;3.17;67.33
61474;BME280;53694;49.784;30.150;2023-02-17T01:06:56;99626.19;;;2.94;68.04
61474;BME280;53694;49.784;30.150;2023-02-17T01:07:58;99627.31;;;2.71;68.81
61474;BME280;53694;49.784;30.150;2023-02-17T01:09:00;99626.20;;;2.49;69.67
61474;BME280;53694;49.784;30.150;2023-02-17T01:10:04;99625.08;;;2.28;70.46
61474;BME280;53694;49.784;30.150;2023-02-17T01:11:06;99625.24;;;2.09;71.25
61474;BME280;53694;49.784;30.150;2023-02-17T01:12:10;99618.55;;;1.93;72.05
61474;BME280;53694;49.784;30.150;2023-02-17T01:13:13;99625.16;;;1.87;72.68
61474;BME280;53694;49.784;30.150;2023-02-17T01:14:15;99622.26;;;1.97;73.05
61474;BME280;53694;49.784;30.150;2023-02-17T01:15:17;99619.59;;;2.19;72.80
61474;BME280;53694;49.784;30.150;2023-02-17T01:16:24;99612.65;;;2.49;72.20
61474;BME280;53694;49.784;30.150;2023-02-17T01:17:26;99618.80;;;2.86;71.38
61474;BME280;53694;49.784;30.150;2023-02-17T01:18:28;99614.20;;;3.26;70.31
61474;BME280;53694;49.784;30.150;2023-02-17T01:19:29;99617.87;;;3.62;69.20
61474;BME280;53694;49.784;30.150;2023-02-17T01:20:33;99610.91;;;3.95;67.92
61474;BME280;53694;49.784;30.150;2023-02-17T01:21:35;99608.38;;;4.25;66.92
61474;BME280;53694;49.784;30.150;2023-02-17T01:22:38;99606.13;;;4.44;66.12
61474;BME280;53694;49.784;30.150;2023-02-17T01:23:39;99609.80;;;4.48;65.56
61474;BME280;53694;49.784;30.150;2023-02-17T01:24:41;99605.95;;;4.41;65.51
61474;BME280;53694;49.784;30.150;2023-02-17T01:25:45;99606.76;;;4.24;65.55
61474;BME280;53694;49.784;30.150;2023-02-17T01:26:47;99600.52;;;3.97;65.98
61474;BME280;53694;49.784;30.150;2023-02-17T01:27:49;99609.91;;;3.74;66.96
61474;BME280;53694;49.784;30.150;2023-02-17T01:28:51;99610.48;;;3.54;67.61
61474;BME280;53694;49.784;30.150;2023-02-17T01:29:53;99615.18;;;3.31;68.33
61474;BME280;53694;49.784;30.150;2023-02-17T01:30:54;99611.41;;;3.09;69.17
61474;BME280;53694;49.784;30.150;2023-02-17T01:31:56;99608.14;;;2.90;70.00
61474;BME280;53694;49.784;30.150;2023-02-17T01:32:57;99596.69;;;2.70;70.76
61474;BME280;53694;49.784;30.150;2023-02-17T01:34:00;99600.59;;;2.56;71.53
61474;BME280;53694;49.784;30.150;2023-02-17T01:35:03;99606.75;;;2.47;72.18
61474;BME280;53694;49.784;30.150;2023-02-17T01:36:06;99608.72;;;2.56;72.45
61474;BME280;53694;49.784;30.150;2023-02-17T01:37:08;99612.53;;;2.77;72.24
61474;BME280;53694;49.784;30.150;2023-02-17T01:38:10;99605.98;;;3.09;71.77
61474;BME280;53694;49.784;30.150;2023-02-17T01:39:14;99602.61;;;3.43;70.98
61474;BME280;53694;49.784;30.150;2023-02-17T01:40:16;99610.88;;;3.78;70.07
61474;BME280;53694;49.784;30.150;2023-02-17T01:41:20;99598.60;;;4.15;68.75
61474;BME280;53694;49.784;30.150;2023-02-17T01:42:22;99602.27;;;4.45;67.60
61474;BME280;53694;49.784;30.150;2023-02-17T01:43:24;99595.37;;;4.74;66.93
61474;BME280;53694;49.784;30.150;2023-02-17T01:44:25;99597.41;;;4.94;65.86
61474;BME280;53694;49.784;30.150;2023-02-17T01:45:36;99600.75;;;5.00;65.26
61474;BME280;53694;49.784;30.150;2023-02-17T01:46:40;99598.05;;;4.91;65.15
61474;BME280;53694;49.784;30.150;2023-02-17T01:47:53;99600.34;;;4.72;65.50
61474;BME280;53694;49.784;30.150;2023-02-17T01:48:50;99596.36;;;4.52;65.92
61474;BME280;53694;49.784;30.150;2023-02-17T01:49:52;99603.74;;;4.25;66.58
61474;BME280;53694;49.784;30.150;2023-02-17T01:51:00;99595.58;;;3.99;67.40
61474;BME280;53694;49.784;30.150;2023-02-17T01:52:11;99599.05;;;3.74;68.34
61474;BME280;53694;49.784;30.150;2023-02-17T01:53:17;99602.79;;;3.47;69.60
61474;BME280;53694;49.784;30.150;2023-02-17T01:54:24;99600.30;;;3.19;70.62
61474;BME280;53694;49.784;30.150;2023-02-17T01:55:26;99603.23;;;3.00;71.58
61474;BME280;53694;49.784;30.150;2023-02-17T01:56:30;99599.31;;;2.84;72.46
61474;BME280;53694;49.784;30.150;2023-02-17T01:57:35;99602.77;;;2.76;73.09
61474;BME280;53694;49.784;30.150;2023-02-17T01:58:41;99601.73;;;2.86;73.40
61474;BME280;53694;49.784;30.150;2023-02-17T01:59:44;99603.59;;;3.08;73.23
61474;BME280;53694;49.784;30.150;2023-02-17T02:00:48;99605.16;;;3.40;72.63
61474;BME280;53694;49.784;30.150;2023-02-17T02:01:53;99593.45;;;3.70;71.82
61474;BME280;53694;49.784;30.150;2023-02-17T02:02:56;99601.98;;;4.04;70.70
61474;BME280;53694;49.784;30.150;2023-02-17T02:04:01;99592.20;;;4.37;69.56
61474;BME280;53694;49.784;30.150;2023-02-17T02:05:04;99600.83;;;4.65;68.49
61474;BME280;53694;49.784;30.150;2023-02-17T02:06:09;99591.02;;;4.90;67.59
61474;BME280;53694;49.784;30.150;2023-02-17T02:07:15;99590.81;;;5.04;66.97
61474;BME280;53694;49.784;30.150;2023-02-17T02:08:16;99590.50;;;5.06;66.46
61474;BME280;53694;49.784;30.150;2023-02-17T02:09:36;99588.75;;;4.92;66.73
61474;BME280;53694;49.784;30.150;2023-02-17T02:10:38;99588.00;;;4.74;66.97
61474;BME280;53694;49.784;30.150;2023-02-17T02:11:40;99587.42;;;4.43;67.66
61474;BME280;53694;49.784;30.150;2023-02-17T02:12:42;99583.92;;;4.16;68.48
61474;BME280;53694;49.784;30.150;2023-02-17T02:13:44;99590.43;;;3.89;69.35
61474;BME280;53694;49.784;30.150;2023-02-17T02:14:47;99588.47;;;3.64;70.42
61474;BME280;53694;49.784;30.150;2023-02-17T02:16:03;99588.57;;;3.41;71.31
61474;BME280;53694;49.784;30.150;2023-02-17T02:17:08;99591.84;;;3.21;72.23
61474;BME280;53694;49.784;30.150;2023-02-17T02:18:17;99590.50;;;3.10;72.95
61474;BME280;53694;49.784;30.150;2023-02-17T02:24:02;99581.99;;;4.25;70.86
61474;BME280;53694;49.784;30.150;2023-02-17T02:25:09;99583.87;;;4.68;69.45
61474;BME280;53694;49.784;30.150;2023-02-17T02:30:25;99596.27;;;5.42;65.81
61474;BME280;53694;49.784;30.150;2023-02-17T02:32:41;99585.08;;;4.88;66.87
61474;BME280;53694;49.784;30.150;2023-02-17T02:33:54;99594.94;;;4.55;67.92
61474;BME280;53694;49.784;30.150;2023-02-17T02:34:59;99585.17;;;4.28;68.84
61474;BME280;53694;49.784;30.150;2023-02-17T02:36:26;99586.12;;;3.97;69.92
61474;BME280;53694;49.784;30.150;2023-02-17T02:37:38;99595.03;;;3.71;70.94
61474;BME280;53694;49.784;30.150;2023-02-17T02:38:42;99592.88;;;3.42;72.13
61474;BME280;53694;49.784;30.150;2023-02-17T02:39:47;99587.53;;;3.20;73.14
61474;BME280;53694;49.784;30.150;2023-02-17T02:40:52;99589.70;;;3.09;74.02
61474;BME280;53694;49.784;30.150;2023-02-17T02:41:57;99590.06;;;3.16;74.51
61474;BME280;53694;49.784;30.150;2023-02-17T02:43:01;99589.81;;;3.35;74.29
61474;BME280;53694;49.784;30.150;2023-02-17T02:44:07;99581.11;;;3.64;73.60
61474;BME280;53694;49.784;30.150;2023-02-17T02:45:10;99585.33;;;3.96;72.95
61474;BME280;53694;49.784;30.150;2023-02-17T02:46:12;99581.83;;;4.31;71.93
61474;BME280;53694;49.784;30.150;2023-02-17T02:48:48;99582.36;;;4.88;69.79
61474;BME280;53694;49.784;30.150;2023-02-17T02:49:51;99579.36;;;5.28;68.42
61474;BME280;53694;49.784;30.150;2023-02-17T02:53:48;99591.86;;;5.59;66.17
61474;BME280;53694;49.784;30.150;2023-02-17T02:56:12;99589.86;;;5.00;67.29
61474;BME280;53694;49.784;30.150;2023-02-17T02:57:18;99588.98;;;4.61;68.47
61474;BME280;53694;49.784;30.150;2023-02-17T03:00:37;99592.80;;;3.73;71.88
61474;BME280;53694;49.784;30.150;2023-02-17T03:01:49;99596.41;;;3.51;72.85
61474;BME280;53694;49.784;30.150;2023-02-17T03:02:54;99594.00;;;3.41;73.68
61474;BME280;53694;49.784;30.150;2023-02-17T03:04:29;99598.51;;;3.55;73.92
61474;BME280;53694;49.784;30.150;2023-02-17T03:06:52;99596.37;;;4.26;72.27
61474;BME280;53694;49.784;30.150;2023-02-17T03:08:09;99587.86;;;4.62;71.20
61474;BME280;53694;49.784;30.150;2023-02-17T03:09:23;99592.76;;;4.95;69.91
61474;BME280;53694;49.784;30.150;2023-02-17T03:10:25;99591.69;;;5.25;68.78
61474;BME280;53694;49.784;30.150;2023-02-17T03:11:26;99593.98;;;5.53;67.81
61474;BME280;53694;49.784;30.150;2023-02-17T03:12:28;99593.74;;;5.67;66.96
61474;BME280;53694;49.784;30.150;2023-02-17T03:13:32;99583.98;;;5.66;66.52
61474;BME280;53694;49.784;30.150;2023-02-17T03:14:36;99589.52;;;5.48;66.52
61474;BME280;53694;49.784;30.150;2023-02-17T03:15:39;99588.02;;;5.21;67.19
61474;BME280;53694;49.784;30.150;2023-02-17T03:16:41;99590.68;;;4.92;68.02
61474;BME280;53694;49.784;30.150;2023-02-17T03:17:42;99586.77;;;4.63;68.92
61474;BME280;53694;49.784;30.150;2023-02-17T03:18:44;99590.14;;;4.34;69.92
61474;BME280;53694;49.784;30.150;2023-02-17T03:19:45;99589.65;;;4.06;70.91
61474;BME280;53694;49.784;30.150;2023-02-17T03:20:53;99592.80;;;3.82;71.90
61474;BME280;53694;49.784;30.150;2023-02-17T03:22:04;99589.09;;;3.61;72.83
61474;BME280;53694;49.784;30.150;2023-02-17T03:23:04;99597.06;;;3.48;73.65
61474;BME280;53694;49.784;30.150;2023-02-17T03:24:06;99591.78;;;3.52;74.15
61474;BME280;53694;49.784;30.150;2023-02-17T03:25:08;99592.95;;;3.68;74.02
61474;BME280;53694;49.784;30.150;2023-02-17T03:26:10;99591.89;;;3.95;73.60
61474;BME280;53694;49.784;30.150;2023-02-17T03:27:12;99581.20;;;4.25;72.79
61474;BME280;53694;49.784;30.150;2023-02-17T03:28:14;99585.65;;;4.56;71.93
61474;BME280;53694;49.784;30.150;2023-02-17T03:29:16;99584.13;;;4.84;70.65
61474;BME280;53694;49.784;30.150;2023-02-17T03:30:18;99579.43;;;5.11;69.76
61474;BME280;53694;49.784;30.150;2023-02-17T03:31:19;99581.25;;;5.36;68.85
61474;BME280;53694;49.784;30.150;2023-02-17T03:32:21;99585.62;;;5.58;67.73
61474;BME280;53694;49.784;30.150;2023-02-17T03:33:23;99591.95;;;5.71;67.03
61474;BME280;53694;49.784;30.150;2023-02-17T03:34:24;99583.30;;;5.69;66.70
61474;BME280;53694;49.784;30.150;2023-02-17T03:35:26;99589.33;;;5.54;66.82
61474;BME280;53694;49.784;30.150;2023-02-17T03:36:27;99593.12;;;5.32;67.23
61474;BME280;53694;49.784;30.150;2023-02-17T03:37:29;99591.60;;;5.05;67.98
61474;BME280;53694;49.784;30.150;2023-02-17T03:38:31;99596.48;;;4.82;68.65
61474;BME280;53694;49.784;30.150;2023-02-17T03:39:32;99594.11;;;4.54;69.50
61474;BME280;53694;49.784;30.150;2023-02-17T03:40:34;99593.03;;;4.29;70.39
61474;BME280;53694;49.784;30.150;2023-02-17T03:41:35;99591.10;;;4.04;71.28
61474;BME280;53694;49.784;30.150;2023-02-17T03:42:37;99586.28;;;3.83;72.16
61474;BME280;53694;49.784;30.150;2023-02-17T03:43:39;99598.08;;;3.70;73.04
61474;BME280;53694;49.784;30.150;2023-02-17T03:44:40;99594.71;;;3.73;73.53
61474;BME280;53694;49.784;30.150;2023-02-17T03:45:42;99594.27;;;3.88;73.41
61474;BME280;53694;49.784;30.150;2023-02-17T03:46:44;99593.83;;;4.12;72.94
61474;BME280;53694;49.784;30.150;2023-02-17T03:47:46;99592.70;;;4.39;72.14
61474;BME280;53694;49.784;30.150;2023-02-17T03:48:47;99598.27;;;4.69;71.19
61474;BME280;53694;49.784;30.150;2023-02-17T03:49:50;99588.60;;;4.97;70.32
61474;BME280;53694;49.784;30.150;2023-02-17T03:50:52;99593.16;;;5.23;69.11
61474;BME280;53694;49.784;30.150;2023-02-17T03:51:53;99599.63;;;5.48;68.29
61474;BME280;53694;49.784;30.150;2023-02-17T03:52:55;99596.47;;;5.67;67.45
61474;BME280;53694;49.784;30.150;2023-02-17T03:53:56;99592.36;;;5.82;66.73
61474;BME280;53694;49.784;30.150;2023-02-17T03:54:58;99594.29;;;5.81;66.42
61474;BME280;53694;49.784;30.150;2023-02-17T03:56:00;99594.20;;;5.69;66.57
61474;BME280;53694;49.784;30.150;2023-02-17T03:57:01;99596.56;;;5.49;66.83
61474;BME280;53694;49.784;30.150;2023-02-17T03:58:03;99589.30;;;5.24;67.35
61474;BME280;53694;49.784;30.150;2023-02-17T03:59:05;99584.27;;;4.96;68.09
61474;BME280;53694;49.784;30.150;2023-02-17T04:00:07;99587.84;;;4.71;68.98
61474;BME280;53694;49.784;30.150;2023-02-17T04:01:11;99595.25;;;4.44;69.83
61474;BME280;53694;49.784;30.150;2023-02-17T04:02:12;99594.12;;;4.19;70.79
61474;BME280;53694;49.784;30.150;2023-02-17T04:03:14;99592.98;;;3.94;71.74
61474;BME280;53694;49.784;30.150;2023-02-17T04:04:15;99588.98;;;3.74;72.57
61474;BME280;53694;49.784;30.150;2023-02-17T04:05:17;99591.18;;;3.64;73.40
61474;BME280;53694;49.784;30.150;2023-02-17T04:06:19;99592.15;;;3.68;73.86
61474;BME280;53694;49.784;30.150;2023-02-17T04:07:21;99590.59;;;3.84;73.64
61474;BME280;53694;49.784;30.150;2023-02-17T04:08:23;99587.56;;;4.12;73.23
61474;BME280;53694;49.784;30.150;2023-02-17T04:09:24;99589.34;;;4.42;72.39
61474;BME280;53694;49.784;30.150;2023-02-17T04:10:26;99582.56;;;4.74;71.32
61474;BME280;53694;49.784;30.150;2023-02-17T04:11:27;99584.56;;;5.04;70.38
61474;BME280;53694;49.784;30.150;2023-02-17T04:12:29;99577.89;;;5.31;69.32
61474;BME280;53694;49.784;30.150;2023-02-17T04:13:30;99579.38;;;5.58;68.42
61474;BME280;53694;49.784;30.150;2023-02-17T04:14:32;99582.28;;;5.82;67.27
61474;BME280;53694;49.784;30.150;2023-02-17T04:15:34;99582.84;;;5.96;66.60
61474;BME280;53694;49.784;30.150;2023-02-17T04:16:35;99582.84;;;5.96;66.06
61474;BME280;53694;49.784;30.150;2023-02-17T04:17:37;99586.11;;;5.81;66.13
61474;BME280;53694;49.784;30.150;2023-02-17T04:18:38;99593.94;;;5.62;66.40
61474;BME280;53694;49.784;30.150;2023-02-17T04:19:40;99587.00;;;5.35;67.01
61474;BME280;53694;49.784;30.150;2023-02-17T04:20:42;99584.72;;;5.07;67.73
61474;BME280;53694;49.784;30.150;2023-02-17T04:21:44;99588.66;;;4.80;68.58
61474;BME280;53694;49.784;30.150;2023-02-17T04:22:45;99590.92;;;4.52;69.53
61474;BME280;53694;49.784;30.150;2023-02-17T04:23:47;99585.17;;;4.28;70.52
61474;BME280;53694;49.784;30.150;2023-02-17T04:24:48;99586.77;;;4.03;71.39
61474;BME280;53694;49.784;30.150;2023-02-17T04:25:50;99588.50;;;3.81;72.32
61474;BME280;53694;49.784;30.150;2023-02-17T04:26:52;99587.22;;;3.70;73.08
61474;BME280;53694;49.784;30.150;2023-02-17T04:27:54;99592.01;;;3.82;73.28
61474;BME280;53694;49.784;30.150;2023-02-17T04:28:55;99588.85;;;4.06;72.97
61474;BME280;53694;49.784;30.150;2023-02-17T04:29:57;99583.91;;;4.42;72.38
61474;BME280;53694;49.784;30.150;2023-02-17T04:30:59;99581.41;;;4.84;71.27
61474;BME280;53694;49.784;30.150;2023-02-17T04:32:00;99588.66;;;5.27;69.72
61474;BME280;53694;49.784;30.150;2023-02-17T04:33:02;99592.61;;;5.68;68.39
61474;BME280;53694;49.784;30.150;2023-02-17T04:34:04;99592.55;;;6.06;66.89
61474;BME280;53694;49.784;30.150;2023-02-17T04:35:06;99584.51;;;6.31;65.47
61474;BME280;53694;49.784;30.150;2023-02-17T04:36:09;99580.19;;;6.30;64.79
61474;BME280;53694;49.784;30.150;2023-02-17T04:37:10;99585.23;;;6.19;64.96
61474;BME280;53694;49.784;30.150;2023-02-17T04:38:12;99588.30;;;5.96;65.15
61474;BME280;53694;49.784;30.150;2023-02-17T04:39:13;99590.22;;;5.66;65.72
61474;BME280;53694;49.784;30.150;2023-02-17T04:40:16;99589.72;;;5.35;66.68
61474;BME280;53694;49.784;30.150;2023-02-17T04:41:17;99586.16;;;5.05;67.62
61474;BME280;53694;49.784;30.150;2023-02-17T04:42:19;99589.59;;;4.75;68.55
61474;BME280;53694;49.784;30.150;2023-02-17T04:43:22;99584.03;;;4.46;69.61
61474;BME280;53694;49.784;30.150;2023-02-17T04:44:23;99590.95;;;4.17;70.64
61474;BME280;53694;49.784;30.150;2023-02-17T04:45:25;99597.95;;;3.92;71.72
61474;BME280;53694;49.784;30.150;2023-02-17T04:46:27;99595.84;;;3.72;72.68
61474;BME280;53694;49.784;30.150;2023-02-17T04:47:28;99597.73;;;3.63;73.42
61474;BME280;53694;49.784;30.150;2023-02-17T04:48:30;99600.80;;;3.70;73.68
61474;BME280;53694;49.784;30.150;2023-02-17T04:49:31;99601.30;;;3.89;73.52
61474;BME280;53694;49.784;30.150;2023-02-17T04:50:33;99592.52;;;4.15;72.98
61474;BME280;53694;49.784;30.150;2023-02-17T04:51:35;99592.52;;;4.44;72.39
61474;BME280;53694;49.784;30.150;2023-02-17T04:52:37;99594.23;;;4.75;71.25
61474;BME280;53694;49.784;30.150;2023-02-17T04:53:39;99595.45;;;5.04;70.26
61474;BME280;53694;49.784;30.150;2023-02-17T04:54:40;99594.23;;;5.31;69.40
61474;BME280;53694;49.784;30.150;2023-02-17T04:55:42;99572.70;;;5.46;68.34
61474;BME280;53694;49.784;30.150;2023-02-17T04:56:44;99595.42;;;5.80;67.52
61474;BME280;53694;49.784;30.150;2023-02-17T04:57:45;99595.20;;;5.94;66.60
61474;BME280;53694;49.784;30.150;2023-02-17T04:58:47;99598.27;;;5.92;66.20
61474;BME280;53694;49.784;30.150;2023-02-17T04:59:48;99603.14;;;5.78;66.13
61474;BME280;53694;49.784;30.150;2023-02-17T05:00:50;99603.41;;;5.56;66.56
61474;BME280;53694;49.784;30.150;2023-02-17T05:01:51;99604.66;;;5.29;67.21
61474;BME280;53694;49.784;30.150;2023-02-17T05:02:53;99599.95;;;4.99;68.00
61474;BME280;53694;49.784;30.150;2023-02-17T05:03:54;99602.58;;;4.70;68.95
61474;BME280;53694;49.784;30.150;2023-02-17T05:04:56;99598.77;;;4.45;69.91
61474;BME280;53694;49.784;30.150;2023-02-17T05:05:58;99598.14;;;4.22;70.80
61474;BME280;53694;49.784;30.150;2023-02-17T05:06:59;99606.44;;;3.99;71.65
61474;BME280;53694;49.784;30.150;2023-02-17T05:08:01;99612.15;;;3.81;72.44
61474;BME280;53694;49.784;30.150;2023-02-17T05:09:03;99604.93;;;3.67;73.16
61474;BME280;53694;49.784;30.150;2023-02-17T05:10:04;99612.13;;;3.72;73.62
61474;BME280;53694;49.784;30.150;2023-02-17T05:11:06;99608.66;;;3.89;73.51
61474;BME280;53694;49.784;30.150;2023-02-17T05:12:08;99613.48;;;4.18;73.09
61474;BME280;53694;49.784;30.150;2023-02-17T05:13:09;99604.69;;;4.47;72.24
61474;BME280;53694;49.784;30.150;2023-02-17T05:14:11;99609.92;;;4.78;71.22
61474;BME280;53694;49.784;30.150;2023-02-17T05:15:12;99611.15;;;5.07;70.21
61474;BME280;53694;49.784;30.150;2023-02-17T05:16:14;99592.48;;;5.26;69.30
61474;BME280;53694;49.784;30.150;2023-02-17T05:17:16;99610.09;;;5.67;68.29
61474;BME280;53694;49.784;30.150;2023-02-17T05:18:17;99613.00;;;5.91;67.18
61474;BME280;53694;49.784;30.150;2023-02-17T05:19:19;99606.98;;;6.07;66.58
61474;BME280;53694;49.784;30.150;2023-02-17T05:20:21;99607.59;;;6.12;66.12
61474;BME280;53694;49.784;30.150;2023-02-17T05:21:23;99612.77;;;6.05;66.05
61474;BME280;53694;49.784;30.150;2023-02-17T05:22:25;99610.47;;;5.86;65.91
61474;BME280;53694;49.784;30.150;2023-02-17T05:23:26;99616.19;;;5.64;66.28
61474;BME280;53694;49.784;30.150;2023-02-17T05:24:28;99619.37;;;5.36;66.93
61474;BME280;53694;49.784;30.150;2023-02-17T05:25:30;99613.69;;;5.12;67.66
61474;BME280;53694;49.784;30.150;2023-02-17T05:26:32;99622.23;;;4.84;68.36
61474;BME280;53694;49.784;30.150;2023-02-17T05:27:34;99618.28;;;4.56;69.30
61474;BME280;53694;49.784;30.150;2023-02-17T05:28:36;99620.69;;;4.31;70.30
61474;BME280;53694;49.784;30.150;2023-02-17T05:29:37;99625.31;;;4.13;71.09
61474;BME280;53694;49.784;30.150;2023-02-17T05:30:39;99624.00;;;3.93;71.83
61474;BME280;53694;49.784;30.150;2023-02-17T05:31:40;99625.11;;;3.84;72.57
61474;BME280;53694;49.784;30.150;2023-02-17T05:32:42;99623.66;;;3.86;72.91
61474;BME280;53694;49.784;30.150;2023-02-17T05:33:43;99634.58;;;4.04;72.78
61474;BME280;53694;49.784;30.150;2023-02-17T05:34:45;99628.37;;;4.29;72.21
61474;BME280;53694;49.784;30.150;2023-02-17T05:35:47;99625.78;;;4.59;71.52
61474;BME280;53694;49.784;30.150;2023-02-17T05:36:49;99630.24;;;4.89;70.64
61474;BME280;53694;49.784;30.150;2023-02-17T05:37:50;99632.38;;;5.22;69.71
61474;BME280;53694;49.784;30.150;2023-02-17T05:38:52;99632.12;;;5.53;68.65
61474;BME280;53694;49.784;30.150;2023-02-17T05:39:53;99635.96;;;5.82;67.64
61474;BME280;53694;49.784;30.150;2023-02-17T05:40:55;99630.58;;;6.03;66.68
61474;BME280;53694;49.784;30.150;2023-02-17T05:41:57;99633.93;;;6.08;66.07
61474;BME280;53694;49.784;30.150;2023-02-17T05:42:58;99625.02;;;5.99;65.87
61474;BME280;53694;49.784;30.150;2023-02-17T05:44:00;99643.83;;;5.83;66.10
61474;BME280;53694;49.784;30.150;2023-02-17T05:45:01;99634.66;;;5.58;66.38
61474;BME280;53694;49.784;30.150;2023-02-17T05:46:04;99645.66;;;5.32;67.04
61474;BME280;53694;49.784;30.150;2023-02-17T05:47:05;99643.32;;;5.05;67.76
61474;BME280;53694;49.784;30.150;2023-02-17T05:48:07;99636.00;;;4.79;68.59
61474;BME280;53694;49.784;30.150;2023-02-17T05:49:09;99645.48;;;4.56;69.40
61474;BME280;53694;49.784;30.150;2023-02-17T05:50:11;99637.46;;;4.33;70.24
61474;BME280;53694;49.784;30.150;2023-02-17T05:51:12;99641.30;;;4.15;71.05
61474;BME280;53694;49.784;30.150;2023-02-17T05:52:14;99642.06;;;3.98;71.78